createdAt,value
2022-08-14T00:00:20.401Z,1011.7
2022-08-14T00:06:00.746Z,1011.6
2022-08-14T00:11:55.375Z,1011.6
2022-08-14T00:17:56.725Z,1011.5
2022-08-14T00:23:40.209Z,1011.4
2022-08-14T00:34:48.167Z,1011.2
2022-08-14T00:40:36.020Z,1011.1
2022-08-14T00:46:33.860Z,1011.1
2022-08-14T00:52:19.196Z,1011
2022-08-14T00:58:03.434Z,1010.9
2022-08-14T01:03:45.378Z,1010.8
2022-08-14T01:09:34.061Z,1010.8
2022-08-14T01:15:15.140Z,1010.7
2022-08-14T01:20:59.649Z,1010.6
2022-08-14T01:26:39.957Z,1010.6
2022-08-14T01:32:24.612Z,1010.6
2022-08-14T01:38:10.620Z,1010.6
2022-08-14T01:43:57.214Z,1010.5
2022-08-14T01:50:02.057Z,1010.5
2022-08-14T01:55:42.970Z,1010.5
2022-08-14T02:01:27.104Z,1010.6
2022-08-14T02:07:16.145Z,1010.5
2022-08-14T02:13:51.415Z,1010.5
2022-08-14T02:19:32.734Z,1010.5
2022-08-14T02:25:19.089Z,1010.5
2022-08-14T02:30:59.407Z,1010.5
2022-08-14T02:37:07.159Z,1010.5
2022-08-14T02:42:57.926Z,1010.5
2022-08-14T02:49:06.641Z,1010.4
2022-08-14T02:54:50.377Z,1010.4
2022-08-14T03:00:31.665Z,1010.2
2022-08-14T03:06:11.849Z,1010.2
2022-08-14T03:11:53.863Z,1010.2
2022-08-14T03:17:58.736Z,1010.2
2022-08-14T03:23:39.421Z,1010.2
2022-08-14T03:29:26.759Z,1010.3
2022-08-14T03:35:10.028Z,1010.3
2022-08-14T03:40:55.847Z,1010.4
2022-08-14T03:46:56.522Z,1010.3
2022-08-14T03:52:55.748Z,1010.3
2022-08-14T03:58:41.474Z,1010.2
2022-08-14T04:09:27.511Z,1010.3
2022-08-14T04:15:12.088Z,1010.2
2022-08-14T04:20:56.229Z,1010.1
2022-08-14T04:26:43.699Z,1010.1
2022-08-14T04:33:17.039Z,1009.9
2022-08-14T04:39:03.062Z,1009.7
2022-08-14T04:45:01.391Z,1010
2022-08-14T04:50:53.897Z,1009.7
2022-08-14T04:56:38.077Z,1009.6
2022-08-14T05:02:28.856Z,1009.5
2022-08-14T05:09:00.454Z,1009.5
2022-08-14T05:14:55.906Z,1009.3
2022-08-14T05:22:18.907Z,1009.3
2022-08-14T05:28:07.250Z,1009.2
2022-08-14T05:33:57.370Z,1009.3
2022-08-14T05:39:41.448Z,1009.3
2022-08-14T05:45:26.658Z,1009.2
2022-08-14T05:51:17.199Z,1009.4
2022-08-14T05:56:58.055Z,1009.3
2022-08-14T06:02:44.167Z,1009.3
2022-08-14T06:08:42.136Z,1009.3
2022-08-14T06:14:24.422Z,1009.3
2022-08-14T06:20:10.644Z,1009.3
2022-08-14T06:25:53.792Z,1009.2
2022-08-14T06:31:35.969Z,1009.2
2022-08-14T06:37:17.468Z,1009.1
2022-08-14T06:43:03.905Z,1009.1
2022-08-14T06:48:47.624Z,1009
2022-08-14T06:54:32.373Z,1009
2022-08-14T07:00:31.519Z,1009
2022-08-14T07:06:47.687Z,1009
2022-08-14T07:13:04.654Z,1008.9
2022-08-14T07:18:51.263Z,1009
2022-08-14T07:24:32.539Z,1009
2022-08-14T07:30:52.117Z,1008.9
2022-08-14T07:41:36.173Z,1008.9
2022-08-14T07:47:17.087Z,1008.9
2022-08-14T07:58:38.633Z,1008.8
2022-08-14T08:04:38.368Z,1008.7
2022-08-14T08:11:08.341Z,1008.8
2022-08-14T08:21:56.992Z,1008.9
2022-08-14T08:27:45.324Z,1008.9
2022-08-14T08:39:23.183Z,1008.8
2022-08-14T08:51:35.125Z,1008.7
2022-08-14T09:02:56.244Z,1008.5
2022-08-14T09:08:37.509Z,1008.5
2022-08-14T09:14:18.770Z,1008.5
2022-08-14T09:26:29.633Z,1008.4
2022-08-14T15:35:50.786Z,1004.4
2022-08-14T15:41:45.464Z,1004.4
2022-08-14T15:47:30.324Z,1004.2
2022-08-14T15:53:13.753Z,1004.2
2022-08-14T15:58:53.673Z,1004.2
2022-08-14T16:04:33.877Z,1004.1
2022-08-14T16:10:31.216Z,1004
2022-08-14T16:17:01.137Z,1004.1
2022-08-14T16:23:13.606Z,1004
2022-08-14T16:28:58.446Z,1004
2022-08-14T16:34:54.720Z,1004
2022-08-14T16:40:44.604Z,1004
2022-08-14T16:46:32.896Z,1003.9
2022-08-14T16:53:00.760Z,1003.8
2022-08-14T16:58:51.788Z,1003.8
2022-08-14T17:04:32.503Z,1003.8
2022-08-14T17:10:12.878Z,1003.7
2022-08-14T17:15:53.891Z,1003.8
2022-08-14T17:21:33.824Z,1003.7
2022-08-14T17:27:21.694Z,1003.7
2022-08-14T17:33:06.714Z,1003.6
2022-08-14T17:39:06.844Z,1003.7
2022-08-14T17:44:52.346Z,1003.6
2022-08-14T17:51:01.981Z,1003.6
2022-08-14T17:56:51.499Z,1003.6
2022-08-14T18:02:37.404Z,1003.6
2022-08-14T18:08:43.717Z,1003.6
2022-08-14T18:14:53.104Z,1003.6
2022-08-14T18:21:57.944Z,1003.5
2022-08-14T18:27:42.260Z,1003.6
2022-08-14T18:33:42.374Z,1003.6
2022-08-14T18:39:30.648Z,1003.6
2022-08-14T18:45:28.617Z,1003.6
2022-08-14T18:51:14.076Z,1003.6
2022-08-14T18:57:41.231Z,1003.6
2022-08-14T19:03:30.974Z,1003.7
2022-08-14T19:09:14.507Z,1003.7
2022-08-14T19:14:58.218Z,1003.7
2022-08-14T19:20:47.849Z,1003.7
2022-08-14T19:26:57.281Z,1003.7
2022-08-14T19:32:41.254Z,1003.7
2022-08-14T19:38:36.974Z,1003.7
2022-08-14T19:44:32.468Z,1003.7
2022-08-14T19:50:45.293Z,1003.8
2022-08-14T19:56:32.356Z,1003.8
2022-08-14T20:02:30.464Z,1003.8
2022-08-14T20:12:00.994Z,1003.9
2022-08-14T20:18:51.081Z,1003.8
2022-08-14T20:24:42.006Z,1003.8
2022-08-14T20:30:37.677Z,1003.8
2022-08-14T20:36:29.474Z,1003.8
2022-08-14T20:42:10.994Z,1003.9
2022-08-14T20:47:53.979Z,1003.8
2022-08-14T20:53:35.926Z,1003.8
2022-08-14T20:59:32.799Z,1003.8
2022-08-14T21:06:26.183Z,1003.7
2022-08-14T21:36:43.561Z,1003.7
2022-08-14T21:42:29.629Z,1003.7
2022-08-14T21:48:12.568Z,1003.8
2022-08-14T21:54:00.414Z,1003.8
2022-08-14T21:59:45.824Z,1003.8
2022-08-14T22:05:29.748Z,1003.9
2022-08-14T22:11:10.558Z,1003.8
2022-08-14T22:17:17.423Z,1003.8
2022-08-14T22:22:57.747Z,1003.8
2022-08-14T22:28:45.071Z,1003.9
2022-08-14T22:34:48.106Z,1003.9
2022-08-14T22:41:36.602Z,1003.8
2022-08-14T22:47:42.005Z,1003.9
2022-08-14T22:53:30.874Z,1003.8
2022-08-14T22:59:15.950Z,1003.8
2022-08-14T23:05:03.586Z,1003.6
2022-08-14T23:10:47.464Z,1003.7
2022-08-14T23:16:30.892Z,1003.7
2022-08-14T23:22:17.238Z,1003.8
2022-08-14T23:28:06.642Z,1003.8
2022-08-14T23:34:51.957Z,1003.8
2022-08-14T23:40:34.994Z,1003.7
2022-08-14T23:46:16.373Z,1003.7
2022-08-14T23:53:08.707Z,1003.7
2022-08-14T23:59:09.399Z,1003.7
